sensor_id;sensor_type;location;lat;lon;timestamp;temperature;humidity
7972;DHT22;4031;49.758;6.120;2023-05-10T00:00:58;11.20;99.90
7972;DHT22;4031;49.758;6.120;2023-05-10T00:03:24;11.10;99.90
7972;DHT22;4031;49.758;6.120;2023-05-10T00:05:50;11.00;99.90
7972;DHT22;4031;49.758;6.120;2023-05-10T00:08:16;11.00;99.90
7972;DHT22;4031;49.758;6.120;2023-05-10T00:10:41;10.90;99.90
7972;DHT22;4031;49.758;6.120;2023-05-10T00:13:07;10.90;99.90
7972;DHT22;4031;49.758;6.120;2023-05-10T00:15:33;10.90;99.90
7972;DHT22;4031;49.758;6.120;2023-05-10T00:18:00;10.80;99.90
7972;DHT22;4031;49.758;6.120;2023-05-10T00:20:26;10.70;99.90
7972;DHT22;4031;49.758;6.120;2023-05-10T00:22:51;10.80;99.90
7972;DHT22;4031;49.758;6.120;2023-05-10T00:25:17;10.70;99.90
7972;DHT22;4031;49.758;6.120;2023-05-10T00:27:43;10.80;99.90
7972;DHT22;4031;49.758;6.120;2023-05-10T00:30:09;10.80;99.90
7972;DHT22;4031;49.758;6.120;2023-05-10T00:32:34;10.80;99.90
7972;DHT22;4031;49.758;6.120;2023-05-10T00:35:00;10.80;99.90
7972;DHT22;4031;49.758;6.120;2023-05-10T00:37:26;10.70;99.90
7972;DHT22;4031;49.758;6.120;2023-05-10T00:39:52;10.70;99.90
7972;DHT22;4031;49.758;6.120;2023-05-10T00:42:17;10.70;99.90
7972;DHT22;4031;49.758;6.120;2023-05-10T00:44:43;10.70;99.90
7972;DHT22;4031;49.758;6.120;2023-05-10T00:47:09;10.70;99.90
7972;DHT22;4031;49.758;6.120;2023-05-10T00:49:35;10.80;99.90
7972;DHT22;4031;49.758;6.120;2023-05-10T00:52:01;10.80;99.90
7972;DHT22;4031;49.758;6.120;2023-05-10T00:54:28;10.70;99.90
7972;DHT22;4031;49.758;6.120;2023-05-10T00:56:54;10.70;99.90
7972;DHT22;4031;49.758;6.120;2023-05-10T00:59:20;10.70;99.90
7972;DHT22;4031;49.758;6.120;2023-05-10T01:01:46;10.60;99.90
7972;DHT22;4031;49.758;6.120;2023-05-10T01:04:12;10.60;99.90
7972;DHT22;4031;49.758;6.120;2023-05-10T01:06:39;10.70;99.90
7972;DHT22;4031;49.758;6.120;2023-05-10T01:09:05;10.60;99.90
7972;DHT22;4031;49.758;6.120;2023-05-10T01:11:33;10.60;99.90
7972;DHT22;4031;49.758;6.120;2023-05-10T01:14:00;10.60;99.90
7972;DHT22;4031;49.758;6.120;2023-05-10T01:16:29;10.60;99.90
7972;DHT22;4031;49.758;6.120;2023-05-10T01:19:05;10.60;99.90
7972;DHT22;4031;49.758;6.120;2023-05-10T01:21:43;10.70;99.90
7972;DHT22;4031;49.758;6.120;2023-05-10T01:27:51;10.90;99.90
7972;DHT22;4031;49.758;6.120;2023-05-10T01:31:02;11.00;99.90
7972;DHT22;4031;49.758;6.120;2023-05-10T01:33:43;11.10;99.90
7972;DHT22;4031;49.758;6.120;2023-05-10T01:42:08;11.20;99.90
7972;DHT22;4031;49.758;6.120;2023-05-10T01:47:17;11.30;99.90
7972;DHT22;4031;49.758;6.120;2023-05-10T01:49:49;11.30;99.90
7972;DHT22;4031;49.758;6.120;2023-05-10T01:52:18;11.30;99.90
7972;DHT22;4031;49.758;6.120;2023-05-10T01:54:53;11.40;99.90
7972;DHT22;4031;49.758;6.120;2023-05-10T01:57:26;11.40;99.90
7972;DHT22;4031;49.758;6.120;2023-05-10T01:59:54;11.40;99.90
7972;DHT22;4031;49.758;6.120;2023-05-10T02:02:21;11.40;99.90
7972;DHT22;4031;49.758;6.120;2023-05-10T02:04:49;11.40;99.90
7972;DHT22;4031;49.758;6.120;2023-05-10T02:07:16;11.50;99.90
7972;DHT22;4031;49.758;6.120;2023-05-10T02:09:44;11.50;99.90
7972;DHT22;4031;49.758;6.120;2023-05-10T02:12:13;11.50;99.90
7972;DHT22;4031;49.758;6.120;2023-05-10T02:14:41;11.50;99.90
7972;DHT22;4031;49.758;6.120;2023-05-10T02:17:08;11.50;99.90
7972;DHT22;4031;49.758;6.120;2023-05-10T02:19:37;11.50;99.90
7972;DHT22;4031;49.758;6.120;2023-05-10T02:22:05;11.50;99.90
7972;DHT22;4031;49.758;6.120;2023-05-10T02:24:32;11.60;99.90
7972;DHT22;4031;49.758;6.120;2023-05-10T02:26:59;11.50;99.90
7972;DHT22;4031;49.758;6.120;2023-05-10T02:29:27;11.50;99.90
7972;DHT22;4031;49.758;6.120;2023-05-10T02:31:54;11.50;99.90
7972;DHT22;4031;49.758;6.120;2023-05-10T02:34:26;11.50;99.90
7972;DHT22;4031;49.758;6.120;2023-05-10T02:36:53;11.50;99.90
7972;DHT22;4031;49.758;6.120;2023-05-10T02:39:20;11.50;99.90
7972;DHT22;4031;49.758;6.120;2023-05-10T02:41:48;11.50;99.90
7972;DHT22;4031;49.758;6.120;2023-05-10T02:44:20;11.60;99.90
7972;DHT22;4031;49.758;6.120;2023-05-10T02:46:48;11.60;99.90
7972;DHT22;4031;49.758;6.120;2023-05-10T02:49:14;11.60;99.90
7972;DHT22;4031;49.758;6.120;2023-05-10T02:51:49;11.60;99.90
7972;DHT22;4031;49.758;6.120;2023-05-10T02:54:23;11.60;99.90
7972;DHT22;4031;49.758;6.120;2023-05-10T02:57:01;11.60;99.90
7972;DHT22;4031;49.758;6.120;2023-05-10T02:59:29;11.70;99.90
7972;DHT22;4031;49.758;6.120;2023-05-10T03:01:56;11.60;99.90
7972;DHT22;4031;49.758;6.120;2023-05-10T03:04:21;11.70;99.90
7972;DHT22;4031;49.758;6.120;2023-05-10T03:06:47;11.60;99.90
7972;DHT22;4031;49.758;6.120;2023-05-10T03:09:13;11.60;99.90
7972;DHT22;4031;49.758;6.120;2023-05-10T03:11:58;11.60;99.90
7972;DHT22;4031;49.758;6.120;2023-05-10T03:17:43;11.60;99.90
7972;DHT22;4031;49.758;6.120;2023-05-10T03:20:20;11.60;99.90
7972;DHT22;4031;49.758;6.120;2023-05-10T03:22:55;11.60;99.90
7972;DHT22;4031;49.758;6.120;2023-05-10T03:25:25;11.60;99.90
7972;DHT22;4031;49.758;6.120;2023-05-10T03:27:52;11.50;99.90
7972;DHT22;4031;49.758;6.120;2023-05-10T03:30:18;11.50;99.90
7972;DHT22;4031;49.758;6.120;2023-05-10T03:32:44;11.50;99.90
7972;DHT22;4031;49.758;6.120;2023-05-10T03:35:11;11.40;99.90
7972;DHT22;4031;49.758;6.120;2023-05-10T03:37:38;11.40;99.90
7972;DHT22;4031;49.758;6.120;2023-05-10T03:40:05;11.40;99.90
7972;DHT22;4031;49.758;6.120;2023-05-10T03:42:31;11.40;99.90
7972;DHT22;4031;49.758;6.120;2023-05-10T03:44:57;11.30;99.90
7972;DHT22;4031;49.758;6.120;2023-05-10T03:47:23;11.30;99.90
7972;DHT22;4031;49.758;6.120;2023-05-10T03:49:48;11.30;99.90
7972;DHT22;4031;49.758;6.120;2023-05-10T03:52:14;11.20;99.90
7972;DHT22;4031;49.758;6.120;2023-05-10T03:54:40;11.20;99.90
7972;DHT22;4031;49.758;6.120;2023-05-10T03:57:05;11.20;99.90
7972;DHT22;4031;49.758;6.120;2023-05-10T03:59:31;11.10;99.90
7972;DHT22;4031;49.758;6.120;2023-05-10T04:01:57;11.10;99.90
7972;DHT22;4031;49.758;6.120;2023-05-10T04:04:22;11.10;99.90
7972;DHT22;4031;49.758;6.120;2023-05-10T04:06:49;11.00;99.90
7972;DHT22;4031;49.758;6.120;2023-05-10T04:09:14;11.00;99.90
7972;DHT22;4031;49.758;6.120;2023-05-10T04:11:41;11.00;99.90
7972;DHT22;4031;49.758;6.120;2023-05-10T04:14:07;10.90;99.90
7972;DHT22;4031;49.758;6.120;2023-05-10T04:16:33;10.90;99.90
7972;DHT22;4031;49.758;6.120;2023-05-10T04:18:59;10.80;99.90
7972;DHT22;4031;49.758;6.120;2023-05-10T04:21:25;10.80;99.90
7972;DHT22;4031;49.758;6.120;2023-05-10T04:23:51;10.80;99.90
7972;DHT22;4031;49.758;6.120;2023-05-10T04:26:16;10.90;99.90
7972;DHT22;4031;49.758;6.120;2023-05-10T04:28:42;10.90;99.90
7972;DHT22;4031;49.758;6.120;2023-05-10T04:31:09;11.00;99.90
7972;DHT22;4031;49.758;6.120;2023-05-10T04:33:36;11.00;99.90
7972;DHT22;4031;49.758;6.120;2023-05-10T04:36:02;11.10;99.90
7972;DHT22;4031;49.758;6.120;2023-05-10T04:38:29;11.10;99.90
7972;DHT22;4031;49.758;6.120;2023-05-10T04:41:03;11.10;99.90
7972;DHT22;4031;49.758;6.120;2023-05-10T04:43:33;11.10;99.90
7972;DHT22;4031;49.758;6.120;2023-05-10T04:45:59;11.20;99.90
7972;DHT22;4031;49.758;6.120;2023-05-10T04:48:24;11.20;99.90
7972;DHT22;4031;49.758;6.120;2023-05-10T04:50:50;11.20;99.90
7972;DHT22;4031;49.758;6.120;2023-05-10T04:53:16;11.30;99.90
7972;DHT22;4031;49.758;6.120;2023-05-10T04:55:42;11.30;99.90
7972;DHT22;4031;49.758;6.120;2023-05-10T04:58:08;11.30;99.90
7972;DHT22;4031;49.758;6.120;2023-05-10T05:00:34;11.30;99.90
7972;DHT22;4031;49.758;6.120;2023-05-10T05:02:59;11.30;99.90
7972;DHT22;4031;49.758;6.120;2023-05-10T05:05:25;11.40;99.90
7972;DHT22;4031;49.758;6.120;2023-05-10T05:07:51;11.30;99.90
7972;DHT22;4031;49.758;6.120;2023-05-10T05:10:17;11.50;99.90
7972;DHT22;4031;49.758;6.120;2023-05-10T05:12:42;11.30;99.90
7972;DHT22;4031;49.758;6.120;2023-05-10T05:15:08;11.30;99.90
7972;DHT22;4031;49.758;6.120;2023-05-10T05:17:35;11.30;99.90
7972;DHT22;4031;49.758;6.120;2023-05-10T05:20:01;11.30;99.90
7972;DHT22;4031;49.758;6.120;2023-05-10T05:22:26;11.30;99.90
7972;DHT22;4031;49.758;6.120;2023-05-10T05:24:57;11.30;99.90
7972;DHT22;4031;49.758;6.120;2023-05-10T05:27:24;11.30;99.90
7972;DHT22;4031;49.758;6.120;2023-05-10T05:29:54;11.30;99.90
7972;DHT22;4031;49.758;6.120;2023-05-10T05:32:20;11.30;99.90
7972;DHT22;4031;49.758;6.120;2023-05-10T05:34:47;11.40;99.90
7972;DHT22;4031;49.758;6.120;2023-05-10T05:37:14;11.40;99.90
7972;DHT22;4031;49.758;6.120;2023-05-10T05:39:41;11.40;99.90
7972;DHT22;4031;49.758;6.120;2023-05-10T05:42:08;11.60;99.90
7972;DHT22;4031;49.758;6.120;2023-05-10T05:44:34;11.60;99.90
7972;DHT22;4031;49.758;6.120;2023-05-10T05:47:00;11.70;99.90
7972;DHT22;4031;49.758;6.120;2023-05-10T05:49:26;11.70;99.90
7972;DHT22;4031;49.758;6.120;2023-05-10T05:51:52;11.80;99.90
7972;DHT22;4031;49.758;6.120;2023-05-10T05:54:17;11.90;99.90
7972;DHT22;4031;49.758;6.120;2023-05-10T05:56:43;11.90;99.90
7972;DHT22;4031;49.758;6.120;2023-05-10T05:59:12;12.00;99.90
7972;DHT22;4031;49.758;6.120;2023-05-10T06:01:39;12.00;99.90
7972;DHT22;4031;49.758;6.120;2023-05-10T06:04:06;12.00;99.90
7972;DHT22;4031;49.758;6.120;2023-05-10T06:06:31;12.10;99.90
7972;DHT22;4031;49.758;6.120;2023-05-10T06:08:57;12.10;99.90
7972;DHT22;4031;49.758;6.120;2023-05-10T06:11:23;12.20;99.90
7972;DHT22;4031;49.758;6.120;2023-05-10T06:13:49;12.20;99.90
7972;DHT22;4031;49.758;6.120;2023-05-10T06:16:15;12.20;99.90
7972;DHT22;4031;49.758;6.120;2023-05-10T06:18:40;12.20;99.90
7972;DHT22;4031;49.758;6.120;2023-05-10T06:21:06;12.30;99.90
7972;DHT22;4031;49.758;6.120;2023-05-10T06:23:32;12.40;99.90
7972;DHT22;4031;49.758;6.120;2023-05-10T06:25:57;12.50;99.90
7972;DHT22;4031;49.758;6.120;2023-05-10T06:28:23;12.60;99.90
7972;DHT22;4031;49.758;6.120;2023-05-10T06:30:49;12.60;99.90
7972;DHT22;4031;49.758;6.120;2023-05-10T06:33:15;12.70;99.90
7972;DHT22;4031;49.758;6.120;2023-05-10T06:35:41;12.80;99.90
7972;DHT22;4031;49.758;6.120;2023-05-10T06:38:07;12.80;99.90
7972;DHT22;4031;49.758;6.120;2023-05-10T06:40:32;12.80;99.90
7972;DHT22;4031;49.758;6.120;2023-05-10T06:42:58;12.70;99.90
7972;DHT22;4031;49.758;6.120;2023-05-10T06:45:24;12.80;99.90
7972;DHT22;4031;49.758;6.120;2023-05-10T06:47:49;12.70;99.90
7972;DHT22;4031;49.758;6.120;2023-05-10T06:50:15;12.70;99.90
7972;DHT22;4031;49.758;6.120;2023-05-10T06:52:41;12.80;99.90
7972;DHT22;4031;49.758;6.120;2023-05-10T06:55:07;12.80;99.90
7972;DHT22;4031;49.758;6.120;2023-05-10T06:57:34;12.80;99.90
7972;DHT22;4031;49.758;6.120;2023-05-10T06:59:59;12.80;99.90
7972;DHT22;4031;49.758;6.120;2023-05-10T07:02:25;12.70;99.90
7972;DHT22;4031;49.758;6.120;2023-05-10T07:04:51;12.60;99.90
7972;DHT22;4031;49.758;6.120;2023-05-10T07:07:17;12.60;99.90
7972;DHT22;4031;49.758;6.120;2023-05-10T07:09:43;12.60;99.90
7972;DHT22;4031;49.758;6.120;2023-05-10T07:12:09;12.60;99.90
7972;DHT22;4031;49.758;6.120;2023-05-10T07:14:35;12.70;99.90
7972;DHT22;4031;49.758;6.120;2023-05-10T07:17:00;12.80;99.90
7972;DHT22;4031;49.758;6.120;2023-05-10T07:19:26;13.00;99.90
7972;DHT22;4031;49.758;6.120;2023-05-10T07:21:52;13.30;99.90
7972;DHT22;4031;49.758;6.120;2023-05-10T07:24:17;13.60;99.90
7972;DHT22;4031;49.758;6.120;2023-05-10T07:26:43;14.00;99.90
7972;DHT22;4031;49.758;6.120;2023-05-10T07:29:09;14.20;99.90
7972;DHT22;4031;49.758;6.120;2023-05-10T07:31:35;14.40;99.90
7972;DHT22;4031;49.758;6.120;2023-05-10T07:34:01;14.30;99.90
7972;DHT22;4031;49.758;6.120;2023-05-10T07:36:26;14.40;99.90
7972;DHT22;4031;49.758;6.120;2023-05-10T07:38:53;14.80;99.90
7972;DHT22;4031;49.758;6.120;2023-05-10T07:41:18;15.10;99.90
7972;DHT22;4031;49.758;6.120;2023-05-10T07:43:44;15.30;99.90
7972;DHT22;4031;49.758;6.120;2023-05-10T07:46:10;15.60;99.90
7972;DHT22;4031;49.758;6.120;2023-05-10T07:48:36;15.90;99.90
7972;DHT22;4031;49.758;6.120;2023-05-10T07:51:02;16.60;99.90
7972;DHT22;4031;49.758;6.120;2023-05-10T07:53:28;17.10;99.90
7972;DHT22;4031;49.758;6.120;2023-05-10T07:55:57;17.40;99.90
7972;DHT22;4031;49.758;6.120;2023-05-10T07:58:24;17.20;99.90
7972;DHT22;4031;49.758;6.120;2023-05-10T08:00:50;16.70;99.90
7972;DHT22;4031;49.758;6.120;2023-05-10T08:03:16;15.70;99.90
7972;DHT22;4031;49.758;6.120;2023-05-10T08:05:42;14.90;99.90
7972;DHT22;4031;49.758;6.120;2023-05-10T08:08:07;14.20;99.90
7972;DHT22;4031;49.758;6.120;2023-05-10T08:10:33;13.80;99.90
7972;DHT22;4031;49.758;6.120;2023-05-10T08:12:59;13.30;99.90
7972;DHT22;4031;49.758;6.120;2023-05-10T08:15:25;13.20;99.90
7972;DHT22;4031;49.758;6.120;2023-05-10T08:17:51;13.00;99.90
7972;DHT22;4031;49.758;6.120;2023-05-10T08:20:17;13.10;99.90
7972;DHT22;4031;49.758;6.120;2023-05-10T08:22:45;13.10;99.90
7972;DHT22;4031;49.758;6.120;2023-05-10T08:25:11;13.10;99.90
7972;DHT22;4031;49.758;6.120;2023-05-10T08:27:36;13.00;99.90
7972;DHT22;4031;49.758;6.120;2023-05-10T08:30:02;13.00;99.90
7972;DHT22;4031;49.758;6.120;2023-05-10T08:32:28;13.10;99.90
7972;DHT22;4031;49.758;6.120;2023-05-10T08:34:55;12.90;99.90
7972;DHT22;4031;49.758;6.120;2023-05-10T08:37:23;13.00;99.90
7972;DHT22;4031;49.758;6.120;2023-05-10T08:39:49;13.10;99.90
7972;DHT22;4031;49.758;6.120;2023-05-10T08:42:19;13.40;99.90
7972;DHT22;4031;49.758;6.120;2023-05-10T08:44:48;13.50;99.90
7972;DHT22;4031;49.758;6.120;2023-05-10T08:47:16;13.60;99.90
7972;DHT22;4031;49.758;6.120;2023-05-10T08:49:46;13.50;99.90
7972;DHT22;4031;49.758;6.120;2023-05-10T08:52:15;13.50;99.90
7972;DHT22;4031;49.758;6.120;2023-05-10T08:54:42;13.60;99.90
7972;DHT22;4031;49.758;6.120;2023-05-10T08:57:08;13.70;99.90
7972;DHT22;4031;49.758;6.120;2023-05-10T08:59:34;13.60;99.90
7972;DHT22;4031;49.758;6.120;2023-05-10T09:02:00;13.60;99.90
7972;DHT22;4031;49.758;6.120;2023-05-10T09:04:28;13.60;99.90
7972;DHT22;4031;49.758;6.120;2023-05-10T09:06:54;13.50;99.90
7972;DHT22;4031;49.758;6.120;2023-05-10T09:09:20;13.60;99.90
7972;DHT22;4031;49.758;6.120;2023-05-10T09:11:47;13.70;99.90
7972;DHT22;4031;49.758;6.120;2023-05-10T09:14:13;13.80;99.90
7972;DHT22;4031;49.758;6.120;2023-05-10T09:16:40;13.90;99.90
7972;DHT22;4031;49.758;6.120;2023-05-10T09:19:07;14.40;99.90
7972;DHT22;4031;49.758;6.120;2023-05-10T09:21:35;14.60;99.90
7972;DHT22;4031;49.758;6.120;2023-05-10T09:24:04;14.90;99.90
7972;DHT22;4031;49.758;6.120;2023-05-10T09:26:31;15.10;99.90
7972;DHT22;4031;49.758;6.120;2023-05-10T09:28:58;15.50;99.90
7972;DHT22;4031;49.758;6.120;2023-05-10T09:31:51;15.80;99.90
7972;DHT22;4031;49.758;6.120;2023-05-10T09:34:30;16.20;99.90
7972;DHT22;4031;49.758;6.120;2023-05-10T09:37:02;16.60;99.90
7972;DHT22;4031;49.758;6.120;2023-05-10T09:39:38;16.60;99.90
7972;DHT22;4031;49.758;6.120;2023-05-10T09:42:09;16.50;99.90
7972;DHT22;4031;49.758;6.120;2023-05-10T09:44:35;16.50;99.90
7972;DHT22;4031;49.758;6.120;2023-05-10T09:47:02;16.70;99.90
7972;DHT22;4031;49.758;6.120;2023-05-10T09:49:29;16.90;99.90
7972;DHT22;4031;49.758;6.120;2023-05-10T09:52:06;17.10;99.90
7972;DHT22;4031;49.758;6.120;2023-05-10T09:54:34;17.20;99.90
7972;DHT22;4031;49.758;6.120;2023-05-10T09:57:00;17.50;99.90
7972;DHT22;4031;49.758;6.120;2023-05-10T09:59:27;17.70;99.90
7972;DHT22;4031;49.758;6.120;2023-05-10T10:02:00;17.40;99.90
7972;DHT22;4031;49.758;6.120;2023-05-10T10:04:26;17.30;99.90
7972;DHT22;4031;49.758;6.120;2023-05-10T10:07:00;17.10;99.90
7972;DHT22;4031;49.758;6.120;2023-05-10T10:09:30;16.90;99.90
7972;DHT22;4031;49.758;6.120;2023-05-10T10:11:56;16.60;99.90
7972;DHT22;4031;49.758;6.120;2023-05-10T10:14:23;16.40;99.90
7972;DHT22;4031;49.758;6.120;2023-05-10T10:16:52;16.50;99.90
7972;DHT22;4031;49.758;6.120;2023-05-10T10:19:21;16.50;99.90
7972;DHT22;4031;49.758;6.120;2023-05-10T10:21:49;16.50;99.90
7972;DHT22;4031;49.758;6.120;2023-05-10T10:24:15;16.60;99.90
7972;DHT22;4031;49.758;6.120;2023-05-10T10:26:42;16.60;99.90
7972;DHT22;4031;49.758;6.120;2023-05-10T10:29:15;16.50;99.90
7972;DHT22;4031;49.758;6.120;2023-05-10T10:31:47;16.50;99.90
7972;DHT22;4031;49.758;6.120;2023-05-10T10:34:30;16.40;99.90
7972;DHT22;4031;49.758;6.120;2023-05-10T10:36:57;16.40;99.90
7972;DHT22;4031;49.758;6.120;2023-05-10T10:39:24;16.60;99.90
7972;DHT22;4031;49.758;6.120;2023-05-10T10:41:55;17.00;99.90
7972;DHT22;4031;49.758;6.120;2023-05-10T10:52:30;18.10;99.90
7972;DHT22;4031;49.758;6.120;2023-05-10T10:55:14;18.40;99.90
7972;DHT22;4031;49.758;6.120;2023-05-10T10:57:47;18.40;99.90
7972;DHT22;4031;49.758;6.120;2023-05-10T11:00:30;18.40;99.90
7972;DHT22;4031;49.758;6.120;2023-05-10T11:03:09;18.40;99.90
7972;DHT22;4031;49.758;6.120;2023-05-10T11:08:15;18.60;99.90
7972;DHT22;4031;49.758;6.120;2023-05-10T11:16:22;18.90;99.90
7972;DHT22;4031;49.758;6.120;2023-05-10T11:19:07;19.00;99.90
7972;DHT22;4031;49.758;6.120;2023-05-10T11:21:55;19.20;99.90
7972;DHT22;4031;49.758;6.120;2023-05-10T11:24:36;19.30;99.90
7972;DHT22;4031;49.758;6.120;2023-05-10T11:27:01;19.30;99.90
7972;DHT22;4031;49.758;6.120;2023-05-10T11:29:27;19.30;99.90
7972;DHT22;4031;49.758;6.120;2023-05-10T11:31:57;19.60;99.90
7972;DHT22;4031;49.758;6.120;2023-05-10T11:34:25;19.70;99.90
7972;DHT22;4031;49.758;6.120;2023-05-10T11:36:56;20.10;99.90
7972;DHT22;4031;49.758;6.120;2023-05-10T11:39:29;20.50;99.90
7972;DHT22;4031;49.758;6.120;2023-05-10T11:41:57;20.80;99.90
7972;DHT22;4031;49.758;6.120;2023-05-10T11:44:23;20.70;99.90
7972;DHT22;4031;49.758;6.120;2023-05-10T11:46:54;20.60;99.90
7972;DHT22;4031;49.758;6.120;2023-05-10T11:49:25;20.50;99.90
7972;DHT22;4031;49.758;6.120;2023-05-10T11:51:51;20.20;99.90
7972;DHT22;4031;49.758;6.120;2023-05-10T11:54:17;19.90;99.90
7972;DHT22;4031;49.758;6.120;2023-05-10T11:56:42;19.80;99.90
7972;DHT22;4031;49.758;6.120;2023-05-10T11:59:08;19.90;99.90
7972;DHT22;4031;49.758;6.120;2023-05-10T12:01:34;19.90;99.90
7972;DHT22;4031;49.758;6.120;2023-05-10T12:04:01;19.70;99.90
7972;DHT22;4031;49.758;6.120;2023-05-10T12:06:31;19.50;99.90
7972;DHT22;4031;49.758;6.120;2023-05-10T12:08:58;19.40;99.90
7972;DHT22;4031;49.758;6.120;2023-05-10T12:11:28;19.20;99.90
7972;DHT22;4031;49.758;6.120;2023-05-10T12:13:54;19.00;99.90
7972;DHT22;4031;49.758;6.120;2023-05-10T12:16:23;19.20;99.90
7972;DHT22;4031;49.758;6.120;2023-05-10T12:18:55;19.20;99.90
7972;DHT22;4031;49.758;6.120;2023-05-10T12:21:22;19.30;99.90
7972;DHT22;4031;49.758;6.120;2023-05-10T12:23:50;19.30;99.90
7972;DHT22;4031;49.758;6.120;2023-05-10T12:26:18;19.50;99.90
7972;DHT22;4031;49.758;6.120;2023-05-10T12:28:46;19.20;99.90
7972;DHT22;4031;49.758;6.120;2023-05-10T12:31:12;19.20;99.90
7972;DHT22;4031;49.758;6.120;2023-05-10T12:33:42;19.00;99.90
7972;DHT22;4031;49.758;6.120;2023-05-10T12:36:13;19.10;99.90
7972;DHT22;4031;49.758;6.120;2023-05-10T12:38:44;19.10;99.90
7972;DHT22;4031;49.758;6.120;2023-05-10T12:41:15;19.20;99.90
7972;DHT22;4031;49.758;6.120;2023-05-10T12:43:42;19.70;99.90
7972;DHT22;4031;49.758;6.120;2023-05-10T12:46:09;20.00;99.90
7972;DHT22;4031;49.758;6.120;2023-05-10T12:48:35;20.30;99.90
7972;DHT22;4031;49.758;6.120;2023-05-10T12:51:03;20.30;99.90
7972;DHT22;4031;49.758;6.120;2023-05-10T12:53:30;20.20;99.90
7972;DHT22;4031;49.758;6.120;2023-05-10T12:55:56;20.00;99.90
7972;DHT22;4031;49.758;6.120;2023-05-10T12:58:21;19.70;99.90
7972;DHT22;4031;49.758;6.120;2023-05-10T13:00:47;19.60;99.90
7972;DHT22;4031;49.758;6.120;2023-05-10T13:03:13;19.50;99.90
7972;DHT22;4031;49.758;6.120;2023-05-10T13:05:40;19.60;99.90
7972;DHT22;4031;49.758;6.120;2023-05-10T13:08:06;19.90;99.90
7972;DHT22;4031;49.758;6.120;2023-05-10T13:10:32;21.00;99.90
7972;DHT22;4031;49.758;6.120;2023-05-10T13:12:58;21.30;99.90
7972;DHT22;4031;49.758;6.120;2023-05-10T13:15:24;21.40;99.90
7972;DHT22;4031;49.758;6.120;2023-05-10T13:17:50;21.70;99.90
7972;DHT22;4031;49.758;6.120;2023-05-10T13:20:17;22.60;99.90
7972;DHT22;4031;49.758;6.120;2023-05-10T13:22:43;23.10;99.90
7972;DHT22;4031;49.758;6.120;2023-05-10T13:25:09;23.80;99.90
7972;DHT22;4031;49.758;6.120;2023-05-10T13:27:36;24.00;99.90
7972;DHT22;4031;49.758;6.120;2023-05-10T13:30:03;24.40;99.90
7972;DHT22;4031;49.758;6.120;2023-05-10T13:32:29;24.70;99.90
7972;DHT22;4031;49.758;6.120;2023-05-10T13:34:55;24.70;99.90
7972;DHT22;4031;49.758;6.120;2023-05-10T13:37:21;23.90;99.90
7972;DHT22;4031;49.758;6.120;2023-05-10T13:39:47;22.90;99.90
7972;DHT22;4031;49.758;6.120;2023-05-10T13:42:13;22.00;99.90
7972;DHT22;4031;49.758;6.120;2023-05-10T13:44:39;21.10;99.90
7972;DHT22;4031;49.758;6.120;2023-05-10T13:47:05;20.80;99.90
7972;DHT22;4031;49.758;6.120;2023-05-10T13:49:31;21.30;99.90
7972;DHT22;4031;49.758;6.120;2023-05-10T13:51:57;21.80;99.90
7972;DHT22;4031;49.758;6.120;2023-05-10T13:54:23;23.00;99.90
7972;DHT22;4031;49.758;6.120;2023-05-10T13:56:49;23.20;99.90
7972;DHT22;4031;49.758;6.120;2023-05-10T13:59:15;23.10;99.90
7972;DHT22;4031;49.758;6.120;2023-05-10T14:01:41;23.00;99.90
7972;DHT22;4031;49.758;6.120;2023-05-10T14:04:08;23.30;99.90
7972;DHT22;4031;49.758;6.120;2023-05-10T14:06:36;24.10;99.90
7972;DHT22;4031;49.758;6.120;2023-05-10T14:09:02;23.50;99.90
7972;DHT22;4031;49.758;6.120;2023-05-10T14:11:28;23.90;99.90
7972;DHT22;4031;49.758;6.120;2023-05-10T14:13:54;23.40;99.90
7972;DHT22;4031;49.758;6.120;2023-05-10T14:16:20;23.80;99.90
7972;DHT22;4031;49.758;6.120;2023-05-10T14:18:46;24.60;99.90
7972;DHT22;4031;49.758;6.120;2023-05-10T14:21:12;25.00;99.90
7972;DHT22;4031;49.758;6.120;2023-05-10T14:23:38;25.10;99.90
7972;DHT22;4031;49.758;6.120;2023-05-10T14:26:04;25.60;99.90
7972;DHT22;4031;49.758;6.120;2023-05-10T14:28:30;25.60;99.90
7972;DHT22;4031;49.758;6.120;2023-05-10T14:30:56;25.40;99.90
7972;DHT22;4031;49.758;6.120;2023-05-10T14:33:22;25.70;99.90
7972;DHT22;4031;49.758;6.120;2023-05-10T14:35:48;25.10;99.90
7972;DHT22;4031;49.758;6.120;2023-05-10T14:38:14;23.70;99.90
7972;DHT22;4031;49.758;6.120;2023-05-10T14:40:39;22.90;99.90
7972;DHT22;4031;49.758;6.120;2023-05-10T14:43:05;22.20;99.90
7972;DHT22;4031;49.758;6.120;2023-05-10T14:45:31;21.70;99.90
7972;DHT22;4031;49.758;6.120;2023-05-10T14:47:57;21.10;99.90
7972;DHT22;4031;49.758;6.120;2023-05-10T14:50:23;20.50;99.90
7972;DHT22;4031;49.758;6.120;2023-05-10T14:52:49;20.00;99.90
7972;DHT22;4031;49.758;6.120;2023-05-10T14:55:15;19.70;99.90
7972;DHT22;4031;49.758;6.120;2023-05-10T14:57:41;19.30;99.90
7972;DHT22;4031;49.758;6.120;2023-05-10T15:00:07;19.00;99.90
7972;DHT22;4031;49.758;6.120;2023-05-10T15:02:33;18.80;99.90
7972;DHT22;4031;49.758;6.120;2023-05-10T15:04:59;18.70;99.90
7972;DHT22;4031;49.758;6.120;2023-05-10T15:07:25;18.60;99.90
7972;DHT22;4031;49.758;6.120;2023-05-10T15:09:51;18.40;99.90
7972;DHT22;4031;49.758;6.120;2023-05-10T15:12:17;18.40;99.90
7972;DHT22;4031;49.758;6.120;2023-05-10T15:14:44;18.50;99.90
7972;DHT22;4031;49.758;6.120;2023-05-10T15:17:09;19.20;99.90
7972;DHT22;4031;49.758;6.120;2023-05-10T15:19:35;20.20;99.90
7972;DHT22;4031;49.758;6.120;2023-05-10T15:22:02;21.10;99.90
7972;DHT22;4031;49.758;6.120;2023-05-10T15:24:28;22.00;99.90
7972;DHT22;4031;49.758;6.120;2023-05-10T15:26:54;22.90;99.90
7972;DHT22;4031;49.758;6.120;2023-05-10T15:29:20;23.50;99.90
7972;DHT22;4031;49.758;6.120;2023-05-10T15:31:50;23.20;99.90
7972;DHT22;4031;49.758;6.120;2023-05-10T15:34:17;22.20;99.90
7972;DHT22;4031;49.758;6.120;2023-05-10T15:36:43;21.70;99.90
7972;DHT22;4031;49.758;6.120;2023-05-10T15:39:10;21.30;99.90
7972;DHT22;4031;49.758;6.120;2023-05-10T15:41:36;20.50;99.90
7972;DHT22;4031;49.758;6.120;2023-05-10T15:44:02;20.10;99.90
7972;DHT22;4031;49.758;6.120;2023-05-10T15:46:28;19.80;99.90
7972;DHT22;4031;49.758;6.120;2023-05-10T15:48:54;19.40;99.90
7972;DHT22;4031;49.758;6.120;2023-05-10T15:51:20;19.40;99.90
7972;DHT22;4031;49.758;6.120;2023-05-10T15:53:46;19.60;99.90
7972;DHT22;4031;49.758;6.120;2023-05-10T15:56:12;20.20;99.90
7972;DHT22;4031;49.758;6.120;2023-05-10T15:58:38;20.90;99.90
7972;DHT22;4031;49.758;6.120;2023-05-10T16:01:04;21.40;99.90
7972;DHT22;4031;49.758;6.120;2023-05-10T16:03:31;21.50;99.90
7972;DHT22;4031;49.758;6.120;2023-05-10T16:05:57;21.40;99.90
7972;DHT22;4031;49.758;6.120;2023-05-10T16:08:23;21.10;99.90
7972;DHT22;4031;49.758;6.120;2023-05-10T16:10:50;20.90;99.90
7972;DHT22;4031;49.758;6.120;2023-05-10T16:13:16;20.60;99.90
7972;DHT22;4031;49.758;6.120;2023-05-10T16:15:42;20.60;99.90
7972;DHT22;4031;49.758;6.120;2023-05-10T16:18:08;20.50;99.90
7972;DHT22;4031;49.758;6.120;2023-05-10T16:20:34;20.50;99.90
7972;DHT22;4031;49.758;6.120;2023-05-10T16:23:02;20.40;99.90
7972;DHT22;4031;49.758;6.120;2023-05-10T16:25:29;20.30;99.90
7972;DHT22;4031;49.758;6.120;2023-05-10T16:27:56;20.20;99.90
7972;DHT22;4031;49.758;6.120;2023-05-10T16:30:21;20.20;99.90
7972;DHT22;4031;49.758;6.120;2023-05-10T16:32:49;20.10;99.90
7972;DHT22;4031;49.758;6.120;2023-05-10T16:35:15;19.60;99.90